Latest Coastal Weather Observations for Middle Percy Island

IDQ60701

Issued at 11:35 am EST Monday 24 November 2014 (issued every 10 minutes, with the page automatically refreshed every 10 minutes)

About coastal observations | Map of coastal stations | Coastal observations for QLD | Marine services | Other Formats
Station Details ID: 200001 Name: MIDDLE PERCY ISLAND Lat: -21.66 Lon: 150.27 Height: 208.7 m
Data from the previous 72 hours. | See also: Recent months at Middle Percy Island
Date/Time
EST
Temp

°C
Wind Pressure Rain
since 9am
mm
Weather Cloud Vis
km
Sea
Height
m
Swell
Dir
 
Speed
knots
Gust
knots
hPa Trend Height
m
Period
s
Dir
24/11:30am 27.3 NE 10 15 1015.6 - 0.2 - - - - - - -
24/11:00am 27.4 NE 10 17 1015.8 - 0.2 - - - - - - -
24/10:30am 27.4 ENE 10 18 1016.0 - 0.2 - - - - - - -
24/10:00am 26.8 NE 9 14 1016.3 - 0.0 - - - - - - -
24/09:30am 23.9 ENE 7 11 1016.5 - 0.0 - - - - - - -
24/09:00am 25.1 NE 8 13 1016.4 - 0.0 - - - - - - -
24/08:30am 25.6 ENE 11 17 1016.4 - 0.0 - - - - - - -
24/08:00am 25.1 NE 9 15 1016.3 - 0.0 - - - - - - -
24/07:30am 25.2 NE 10 16 1016.0 - 0.0 - - - - - - -
24/07:00am 24.7 ENE 8 13 1016.0 - 0.0 - - - - - - -
24/06:30am 24.7 NE 8 12 1015.7 - 0.0 - - - - - - -
24/06:00am 23.8 NNE 8 13 1015.4 - 0.0 - - - - - - -
24/05:30am 23.4 NE 8 11 1015.0 - 0.0 - - - - - - -
24/05:00am 23.1 NE 7 11 1014.9 - 0.0 - - - - - - -
24/04:30am 23.1 NNE 7 10 1014.5 - 0.0 - - - - - - -
24/04:00am 22.9 NNE 9 14 1014.4 - 0.0 - - - - - - -
24/03:30am 23.1 NNE 9 13 1014.4 - 0.0 - - - - - - -
24/03:00am 23.4 NE 10 16 1014.2 - 0.0 - - - - - - -
24/02:30am 23.6 NE 9 14 1014.3 - 0.0 - - - - - - -
24/02:00am 23.4 NE 8 13 1014.6 - 0.0 - - - - - - -
24/01:30am 23.5 NE 8 14 1014.9 - 0.0 - - - - - - -
24/01:00am 23.7 NE 9 13 1015.1 - 0.0 - - - - - - -
24/12:30am 23.5 NE 7 12 1015.4 - 0.0 - - - - - - -
24/12:00am 23.6 NE 9 13 1015.7 - 0.0 - - - - - - -
 
Date/Time
EST
Temp

°C
Wind Pressure Rain
since 9am
mm
Weather Cloud Vis
km
Sea
Height
m
Swell
Dir
 
Speed
knots
Gust
knots
hPa Trend Height
m
Period
s
Dir
23/11:30pm 23.6 ENE 6 9 1016.1 - 0.0 - - - - - - -
23/11:00pm 23.6 NE 7 11 1016.2 - 0.0 - - - - - - -
23/10:30pm 23.6 NE 6 11 1016.2 - 0.0 - - - - - - -
23/10:00pm 23.6 NE 7 11 1016.0 - 0.0 - - - - - - -
23/09:30pm 23.6 NE 9 14 1015.8 - 0.0 - - - - - - -
23/09:00pm 23.6 NE 9 15 1015.6 - 0.0 - - - - - - -
23/08:30pm 23.6 NE 9 13 1015.4 - 0.0 - - - - - - -
23/08:00pm 23.5 NE 10 16 1015.2 - 0.0 - - - - - - -
23/07:30pm 23.6 NE 8 14 1015.0 - 0.0 - - - - - - -
23/07:00pm 23.6 NE 8 12 1014.8 - 0.0 - - - - - - -
23/06:30pm 23.7 NE 9 13 1014.4 - 0.0 - - - - - - -
23/06:00pm 24.1 NE 10 15 1014.1 - 0.0 - - - - - - -
23/05:30pm 24.6 ENE 10 14 1014.0 - 0.0 - - - - - - -
23/05:00pm 25.1 NE 9 15 1014.1 - 0.0 - - - - - - -
23/04:30pm 25.7 ENE 9 14 1014.1 - 0.0 - - - - - - -
23/04:00pm 26.0 ENE 7 13 1014.1 - 0.0 - - - - - - -
23/03:30pm 25.9 NE 8 13 1014.3 - 0.0 - - - - - - -
23/03:00pm 27.1 E 7 12 1014.5 - 0.0 - - - - - - -
23/02:30pm 27.3 E 6 9 1014.9 - 0.0 - - - - - - -
23/02:00pm 27.3 ESE 8 15 1015.2 - 0.0 - - - - - - -
23/01:30pm 26.3 ESE 9 13 1015.6 - 0.0 - - - - - - -
23/01:00pm 25.7 SE 10 13 1015.9 - 0.0 - - - - - - -
23/12:30pm 26.7 ESE 8 13 1016.1 - 0.0 - - - - - - -
23/12:00pm 27.1 SE 9 12 1016.3 - 0.0 - - - - - - -
23/11:30am 27.2 ESE 7 12 1016.8 - 0.0 - - - - - - -
23/11:00am 28.7 E 7 14 1017.0 - 0.0 - - - - - - -
23/10:30am 27.2 E 6 11 1017.0 - 0.0 - - - - - - -
23/10:00am 26.0 NE 9 13 1017.2 - 0.0 - - - - - - -
23/09:30am 27.0 ENE 9 12 1017.2 - 0.0 - - - - - - -
23/09:00am 26.6 ENE 8 11 1017.1 - 0.0 - - - - - - -
23/08:30am 25.8 ENE 6 10 1017.0 - 0.0 - - - - - - -
23/08:00am 25.8 NE 7 11 1016.8 - 0.0 - - - - - - -
23/07:30am 25.3 NE 8 12 1016.5 - 0.0 - - - - - - -
23/07:00am 25.0 NE 8 11 1016.2 - 0.0 - - - - - - -
23/06:30am 24.3 ENE 7 12 1015.9 - 0.0 - - - - - - -
23/06:00am 23.9 NE 6 9 1015.6 - 0.0 - - - - - - -
23/05:30am 23.2 NE 6 10 1015.1 - 0.0 - - - - - - -
23/05:00am 22.9 NE 5 8 1014.9 - 0.0 - - - - - - -
23/04:30am 23.0 NE 5 7 1014.6 - 0.0 - - - - - - -
23/04:00am 23.0 NE 6 9 1014.4 - 0.0 - - - - - - -
23/03:30am 23.0 NE 7 10 1014.3 - 0.0 - - - - - - -
23/03:00am 23.3 NE 7 10 1014.3 - 0.0 - - - - - - -
23/02:30am 23.3 NNE 8 11 1014.2 - 0.0 - - - - - - -
23/02:00am 23.3 NE 9 13 1014.2 - 0.0 - - - - - - -
23/01:30am 23.2 NE 10 14 1014.1 - 0.0 - - - - - - -
23/01:00am 23.4 NE 11 15 1014.2 - 0.0 - - - - - - -
23/12:30am 23.4 NE 12 16 1014.6 - 0.0 - - - - - - -
23/12:00am 23.5 NNE 11 14 1015.2 - 0.0 - - - - - - -
 
Date/Time
EST
Temp

°C
Wind Pressure Rain
since 9am
mm
Weather Cloud Vis
km
Sea
Height
m
Swell
Dir
 
Speed
knots
Gust
knots
hPa Trend Height
m
Period
s
Dir
22/11:30pm 23.6 NE 11 15 1015.4 - 0.0 - - - - - - -
22/11:00pm 23.7 NNE 10 15 1015.5 - 0.0 - - - - - - -
22/10:30pm 23.9 NNE 11 16 1015.4 - 0.0 - - - - - - -
22/10:00pm 23.8 NE 11 16 1015.5 - 0.0 - - - - - - -
22/09:30pm 23.8 NE 11 15 1015.4 - 0.0 - - - - - - -
22/09:00pm 24.0 NE 10 16 1015.2 - 0.0 - - - - - - -
22/08:30pm 24.0 NE 11 16 1014.9 - 0.0 - - - - - - -
22/08:00pm 24.0 NNE 11 17 1014.6 - 0.0 - - - - - - -
22/07:30pm 24.1 NE 12 17 1014.3 - 0.0 - - - - - - -
22/07:00pm 24.1 NNE 10 15 1014.0 - 0.0 - - - - - - -
22/06:30pm 24.1 NNE 9 13 1013.7 - 0.0 - - - - - - -
22/06:00pm 24.4 NNE 9 13 1013.3 - 0.0 - - - - - - -
22/05:30pm 24.9 NNE 10 14 1013.0 - 0.0 - - - - - - -
22/05:00pm 25.5 NE 9 12 1012.8 - 0.0 - - - - - - -
22/04:30pm 26.1 NNE 7 12 1012.7 - 0.0 - - - - - - -
22/04:00pm 26.6 NE 7 12 1012.7 - 0.0 - - - - - - -
22/03:30pm 27.0 NNE 5 9 1012.9 - 0.0 - - - - - - -
22/03:00pm 25.9 NE 5 7 1013.3 - 0.0 - - - - - - -
22/02:30pm 26.2 W 2 5 1013.8 - 0.0 - - - - - - -
22/02:00pm 26.2 S 6 8 1014.2 - 0.0 - - - - - - -
22/01:30pm 27.4 S 6 10 1014.4 - 0.0 - - - - - - -
22/01:00pm 26.8 SSW 6 9 1014.5 - 0.0 - - - - - - -
22/12:30pm 26.5 SSW 5 8 1015.1 - 0.0 - - - - - - -
22/12:00pm 26.4 SSW 3 6 1015.5 - 0.0 - - - - - - -
22/11:30am 27.9 N 6 10 1015.8 - 0.0 - - - - - - -
22/11:00am 26.8 N 8 11 1016.1 - 0.0 - - - - - - -
22/10:30am 26.7 N 7 10 1016.2 - 0.0 - - - - - - -
22/10:00am 26.7 N 7 9 1016.3 - 0.0 - - - - - - -
22/09:30am 27.1 N 7 11 1016.4 - 0.0 - - - - - - -
22/09:00am 26.3 N 7 10 1016.3 - 0.0 - - - - - - -
22/08:30am 26.6 N 6 9 1016.4 - 0.0 - - - - - - -
22/08:00am 26.0 N 9 12 1016.2 - 0.0 - - - - - - -
22/07:30am 25.4 N 7 10 1016.0 - 0.0 - - - - - - -
22/07:00am 24.7 N 7 10 1015.8 - 0.0 - - - - - - -
22/06:30am 24.3 N 7 11 1015.2 - 0.0 - - - - - - -
22/06:00am 24.0 N 6 10 1014.9 - 0.0 - - - - - - -
22/05:30am 23.5 N 7 10 1014.3 - 0.0 - - - - - - -
22/05:00am 23.4 N 7 9 1013.9 - 0.0 - - - - - - -
22/04:30am 23.5 N 8 11 1013.3 - 0.0 - - - - - - -
22/04:00am 23.4 N 9 13 1013.0 - 0.0 - - - - - - -
22/03:30am 23.4 N 9 13 1013.0 - 0.0 - - - - - - -
22/03:00am 23.5 N 7 10 1013.0 - 0.0 - - - - - - -
22/02:30am 23.6 NNE 8 13 1013.1 - 0.0 - - - - - - -
22/02:00am 23.6 NNE 8 12 1013.3 - 0.0 - - - - - - -
22/01:30am 23.7 N 8 13 1013.4 - 0.0 - - - - - - -
22/01:00am 23.6 NNE 9 13 1013.5 - 0.0 - - - - - - -
22/12:30am 23.6 N 9 13 1014.0 - 0.0 - - - - - - -
22/12:00am 23.6 NNE 8 12 1014.5 - 0.0 - - - - - - -
 
Date/Time
EST
Temp

°C
Wind Pressure Rain
since 9am
mm
Weather Cloud Vis
km
Sea
Height
m
Swell
Dir
 
Speed
knots
Gust
knots
hPa Trend Height
m
Period
s
Dir
21/11:30pm 23.6 N 8 11 1015.0 - 0.0 - - - - - - -
21/11:00pm 23.6 NNE 9 14 1014.8 - 0.0 - - - - - - -
21/10:30pm 23.6 NNE 8 12 1014.9 - 0.0 - - - - - - -
21/10:00pm 23.6 NNE 9 13 1014.9 - 0.0 - - - - - - -
21/09:30pm 23.7 NNE 8 12 1015.0 - 0.0 - - - - - - -
21/09:00pm 24.1 NNE 8 12 1014.8 - 0.0 - - - - - - -
21/08:30pm 23.9 NNE 9 14 1014.1 - 0.0 - - - - - - -
21/08:00pm 23.9 NNE 10 14 1014.0 - 0.0 - - - - - - -
21/07:30pm 23.8 NNE 9 15 1013.7 - 0.0 - - - - - - -
21/07:00pm 23.9 NNE 7 11 1013.4 - 0.0 - - - - - - -
21/06:30pm 24.0 NNE 8 13 1013.2 - 0.0 - - - - - - -
21/06:00pm 24.3 NNE 10 14 1013.1 - 0.0 - - - - - - -
21/05:30pm 24.8 NNE 10 13 1012.8 - 0.0 - - - - - - -
21/05:00pm 25.4 NNE 8 14 1012.8 - 0.0 - - - - - - -
21/04:30pm 25.7 NNE 8 12 1012.9 - 0.0 - - - - - - -
21/04:00pm 26.0 NNE 10 14 1012.8 - 0.0 - - - - - - -
21/03:30pm 27.0 NNE 7 14 1012.9 - 0.0 - - - - - - -
21/03:00pm 26.7 NNE 9 13 1013.2 - 0.0 - - - - - - -
21/02:30pm 27.7 NNE 8 12 1013.5 - 0.0 - - - - - - -
21/02:00pm 27.9 NNE 6 10 1013.7 - 0.0 - - - - - - -
21/01:30pm 27.0 N 9 12 1014.0 - 0.0 - - - - - - -
21/01:00pm 26.9 N 9 13 1014.3 - 0.0 - - - - - - -
21/12:30pm 27.2 N 8 12 1014.9 - 0.0 - - - - - - -
21/12:00pm 27.0 N 8 12 1015.3 - 0.0 - - - - - - -

Other Formats:

Comma delimited format used in spreadsheet applications
http://www.bom.gov.au/fwo/IDQ60701/IDQ60701.94372.axf

JavaScript Object Notation format (JSON) in row-major order
http://www.bom.gov.au/fwo/IDQ60701/IDQ60701.94372.json